Wetterstation Vordersexau
Wetterdaten: Woche 26.11.18 - 02.12.18 (KW48)
Datum Zeit Temp. A. Feuchte A. Luftdruck Regen Wind Richtung Taupunkt Windchill Windben
26.11.2018 00:00 4,6 C 84 % 1002,4 hPa 0,0 l/m 0,0 km/h O 2,1 C 4,6 C 0,0 km/h
26.11.2018 01:00 4,4 C 85 % 1002,3 hPa 0,0 l/m 0,0 km/h O 2,1 C 4,4 C 0,0 km/h
26.11.2018 02:00 4,3 C 85 % 1002,4 hPa 0,0 l/m 0,0 km/h O 2,0 C 4,3 C 0,0 km/h
26.11.2018 03:00 4,1 C 85 % 1002,4 hPa 0,0 l/m 0,0 km/h S 1,8 C 4,1 C 0,0 km/h
26.11.2018 04:00 3,8 C 85 % 1002,2 hPa 0,0 l/m 0,0 km/h S 1,5 C 3,8 C 0,0 km/h
26.11.2018 05:00 3,4 C 85 % 1002,2 hPa 0,0 l/m 0,0 km/h S 1,1 C 3,4 C 0,0 km/h
26.11.2018 06:00 3,3 C 84 % 1002,1 hPa 0,0 l/m 0,0 km/h S 0,9 C 3,3 C 0,0 km/h
26.11.2018 07:00 3,2 C 84 % 1002,2 hPa 0,0 l/m 0,0 km/h S 0,8 C 3,2 C 0,0 km/h
26.11.2018 08:00 3,1 C 84 % 1002,9 hPa 0,0 l/m 0,0 km/h S 0,7 C 3,1 C 0,0 km/h
26.11.2018 09:00 3,6 C 84 % 1003,6 hPa 0,0 l/m 0,0 km/h S 1,2 C 3,6 C 0,0 km/h
26.11.2018 10:00 4,5 C 82 % 1003,9 hPa 0,0 l/m 0,0 km/h S-SW 1,7 C 4,5 C 0,0 km/h
26.11.2018 11:00 4,7 C 83 % 1003,9 hPa 0,0 l/m 0,0 km/h S-SW 2,1 C 4,7 C 0,0 km/h
26.11.2018 12:00 4,9 C 84 % 1003,8 hPa 0,0 l/m 0,0 km/h S-SW 2,4 C 4,9 C 0,0 km/h
26.11.2018 13:00 5,3 C 84 % 1003,8 hPa 0,0 l/m 0,0 km/h S-SW 2,8 C 5,3 C 0,0 km/h
26.11.2018 14:00 5,3 C 85 % 1004,4 hPa 0,0 l/m 0,0 km/h S-SW 3,0 C 5,3 C 0,0 km/h
26.11.2018 15:00 5,1 C 85 % 1004,9 hPa 0,0 l/m 0,0 km/h S-SW 2,8 C 5,1 C 0,0 km/h
26.11.2018 16:00 4,9 C 85 % 1005,4 hPa 0,0 l/m 0,0 km/h W 2,6 C 4,9 C 0,0 km/h
26.11.2018 17:00 4,5 C 85 % 1006,0 hPa 0,0 l/m 0,0 km/h W-NW 2,2 C 4,5 C 0,0 km/h
26.11.2018 18:00 4,2 C 85 % 1006,6 hPa 0,0 l/m 0,0 km/h W-NW 1,9 C 4,2 C 0,0 km/h
26.11.2018 19:00 4,1 C 85 % 1007,3 hPa 0,0 l/m 0,0 km/h W-NW 1,8 C 4,1 C 0,0 km/h
26.11.2018 20:00 4,1 C 85 % 1007,8 hPa 0,0 l/m 0,0 km/h W-NW 1,8 C 4,1 C 0,0 km/h
26.11.2018 21:00 3,8 C 85 % 1008,7 hPa 0,0 l/m 0,0 km/h NW 1,5 C 3,8 C 0,0 km/h
26.11.2018 22:00 3,5 C 84 % 1009,5 hPa 0,5 l/m 0,0 km/h NW 1,1 C 3,5 C 0,0 km/h
26.11.2018 23:00 3,5 C 83 % 1009,9 hPa 0,5 l/m 0,0 km/h NW 0,9 C 3,5 C 0,0 km/h
27.11.2018 00:00 3,4 C 83 % 1010,6 hPa 0,5 l/m 0,0 km/h NW 0,8 C 3,4 C 0,0 km/h
27.11.2018 01:00 3,3 C 82 % 1010,9 hPa 1,0 l/m 0,0 km/h NW 0,5 C 3,3 C 0,0 km/h
27.11.2018 02:00 3,3 C 82 % 1011,6 hPa 0,5 l/m 0,0 km/h NW 0,5 C 3,3 C 0,0 km/h
27.11.2018 03:00 3,3 C 82 % 1011,9 hPa 0,0 l/m 0,0 km/h NW 0,5 C 3,3 C 0,0 km/h
27.11.2018 04:00 3,0 C 81 % 1012,4 hPa 0,0 l/m 0,0 km/h NW 0,1 C 3,0 C 0,0 km/h
27.11.2018 05:00 2,9 C 81 % 1012,6 hPa 0,5 l/m 0,0 km/h NW -0,0 C 2,9 C 0,0 km/h
27.11.2018 06:00 2,9 C 80 % 1013,2 hPa 0,0 l/m 0,0 km/h NW -0,2 C 2,9 C 0,0 km/h
27.11.2018 07:00 3,0 C 80 % 1013,9 hPa 0,0 l/m 0,0 km/h NW -0,1 C 3,0 C 0,0 km/h
27.11.2018 08:00 3,0 C 80 % 1014,8 hPa 0,5 l/m 0,0 km/h W-NW -0,1 C 3,0 C 0,0 km/h
27.11.2018 09:00 2,9 C 79 % 1015,5 hPa 0,0 l/m 0,0 km/h S-SO -0,4 C 2,9 C 0,0 km/h
27.11.2018 10:00 3,2 C 78 % 1015,9 hPa 0,0 l/m 0,0 km/h S-SO -0,3 C 3,2 C 0,0 km/h
27.11.2018 11:00 3,6 C 77 % 1016,2 hPa 0,0 l/m 0,0 km/h S-SO -0,0 C 3,6 C 0,0 km/h
27.11.2018 12:00 3,9 C 76 % 1016,2 hPa 0,0 l/m 0,0 km/h S-SO 0,1 C 3,9 C 0,0 km/h
27.11.2018 13:00 4,0 C 76 % 1016,5 hPa 0,0 l/m 0,0 km/h S-SO 0,2 C 4,0 C 0,0 km/h
27.11.2018 14:00 4,1 C 77 % 1016,8 hPa 0,0 l/m 0,0 km/h S-SO 0,4 C 4,1 C 0,0 km/h
27.11.2018 15:00 4,1 C 77 % 1017,3 hPa 0,0 l/m 0,0 km/h S-SO 0,4 C 4,1 C 0,0 km/h
27.11.2018 16:00 4,1 C 78 % 1017,7 hPa 0,0 l/m 0,0 km/h S-SO 0,6 C 4,1 C 0,0 km/h
27.11.2018 17:00 3,8 C 78 % 1017,9 hPa 0,0 l/m 0,0 km/h S-SO 0,3 C 3,8 C 0,0 km/h
27.11.2018 18:00 3,7 C 78 % 1018,3 hPa 0,0 l/m 0,0 km/h S-SO 0,2 C 3,7 C 0,0 km/h
27.11.2018 19:00 3,6 C 77 % 1018,8 hPa 0,0 l/m 0,0 km/h S-SO -0,0 C 3,6 C 0,0 km/h
27.11.2018 20:00 3,6 C 77 % 1019,1 hPa 0,0 l/m 0,0 km/h S-SO -0,0 C 3,6 C 0,0 km/h
27.11.2018 21:00 3,6 C 77 % 1019,2 hPa 0,0 l/m 0,0 km/h S-SO -0,0 C 3,6 C 0,0 km/h
27.11.2018 22:00 3,5 C 77 % 1019,6 hPa 0,0 l/m 0,0 km/h S-SO -0,1 C 3,5 C 0,0 km/h
27.11.2018 23:00 3,4 C 77 % 1019,6 hPa 0,0 l/m 0,0 km/h S-SO -0,2 C 3,4 C 0,0 km/h
28.11.2018 00:00 3,4 C 76 % 1019,8 hPa 0,0 l/m 0,0 km/h SO -0,4 C 3,4 C 0,0 km/h
28.11.2018 01:00 3,3 C 76 % 1019,3 hPa 0,0 l/m 0,0 km/h SO -0,5 C 3,3 C 0,0 km/h
28.11.2018 02:00 3,0 C 77 % 1019,5 hPa 0,0 l/m 0,0 km/h SO -0,6 C 3,0 C 0,0 km/h
28.11.2018 03:00 1,9 C 79 % 1019,1 hPa 0,0 l/m 0,0 km/h SO -1,3 C 1,9 C 0,0 km/h
28.11.2018 04:00 1,5 C 78 % 1019,3 hPa 0,0 l/m 0,0 km/h SO -1,9 C 1,5 C 0,0 km/h
28.11.2018 05:00 1,1 C 78 % 1019,6 hPa 0,0 l/m 0,0 km/h SO -2,3 C 1,1 C 0,0 km/h
28.11.2018 06:00 0,6 C 79 % 1019,2 hPa 0,0 l/m 0,0 km/h SO -2,6 C 0,6 C 0,0 km/h
28.11.2018 07:00 0,6 C 78 % 1019,5 hPa 0,0 l/m 0,0 km/h SO -2,8 C 0,6 C 0,0 km/h
28.11.2018 08:00 0,6 C 78 % 1020,1 hPa 0,0 l/m 0,0 km/h SO -2,8 C 0,6 C 0,0 km/h
28.11.2018 09:00 1,5 C 75 % 1020,3 hPa 0,0 l/m 0,0 km/h SO -2,4 C 1,5 C 0,0 km/h
28.11.2018 10:00 2,7 C 72 % 1020,6 hPa 0,0 l/m 0,0 km/h SO -1,8 C 2,7 C 0,0 km/h
28.11.2018 11:00 3,9 C 70 % 1020,6 hPa 0,0 l/m 0,0 km/h S-SW -1,1 C 3,9 C 0,0 km/h
28.11.2018 12:00 4,0 C 73 % 1020,5 hPa 0,0 l/m 0,0 km/h S-SW -0,4 C 4,0 C 0,0 km/h
28.11.2018 13:00 4,5 C 74 % 1020,1 hPa 0,0 l/m 0,0 km/h S-SW 0,3 C 4,5 C 0,0 km/h
28.11.2018 14:00 4,8 C 79 % 1020,0 hPa 0,0 l/m 0,0 km/h S-SW 1,5 C 4,8 C 0,0 km/h
28.11.2018 15:00 4,9 C 82 % 1020,1 hPa 0,0 l/m 0,0 km/h S-SW 2,1 C 4,9 C 0,0 km/h
28.11.2018 16:00 4,7 C 84 % 1019,7 hPa 0,0 l/m 0,0 km/h S-SW 2,2 C 4,7 C 0,0 km/h
28.11.2018 17:00 4,4 C 83 % 1019,7 hPa 0,0 l/m 0,0 km/h S-SW 1,8 C 4,4 C 0,0 km/h
28.11.2018 18:00 4,4 C 82 % 1019,9 hPa 0,0 l/m 0,0 km/h S-SW 1,6 C 4,4 C 0,0 km/h
28.11.2018 19:00 4,4 C 81 % 1020,1 hPa 0,0 l/m 0,0 km/h S-SW 1,4 C 4,4 C 0,0 km/h
28.11.2018 20:00 4,6 C 80 % 1020,1 hPa 0,0 l/m 0,0 km/h S-SW 1,5 C 4,6 C 0,0 km/h
28.11.2018 21:00 4,8 C 79 % 1020,1 hPa 0,0 l/m 0,0 km/h S-SW 1,5 C 4,8 C 0,0 km/h
28.11.2018 22:00 4,9 C 79 % 1019,8 hPa 0,0 l/m 0,0 km/h O-SO 1,6 C 4,9 C 0,0 km/h
28.11.2018 23:00 4,9 C 79 % 1019,3 hPa 0,5 l/m 0,0 km/h O-SO 1,6 C 4,9 C 0,0 km/h
29.11.2018 00:00 4,7 C 80 % 1018,8 hPa 0,0 l/m 0,0 km/h O-SO 1,6 C 4,7 C 0,0 km/h
29.11.2018 01:00 4,7 C 79 % 1018,2 hPa 0,0 l/m 0,0 km/h N-NO 1,4 C 4,7 C 0,0 km/h
29.11.2018 02:00 4,8 C 78 % 1018,1 hPa 0,0 l/m 0,0 km/h NO 1,3 C 4,8 C 0,0 km/h
29.11.2018 03:00 4,6 C 79 % 1017,9 hPa 0,0 l/m 0,0 km/h O-SO 1,3 C 4,6 C 0,0 km/h
29.11.2018 04:00 4,4 C 79 % 1017,1 hPa 0,0 l/m 0,0 km/h O-SO 1,1 C 4,4 C 0,0 km/h
29.11.2018 05:00 3,8 C 79 % 1017,3 hPa 0,0 l/m 0,0 km/h O-SO 0,5 C 3,8 C 0,0 km/h
29.11.2018 06:00 3,1 C 78 % 1017,1 hPa 0,0 l/m 0,0 km/h O-NO -0,4 C 3,1 C 0,0 km/h
29.11.2018 07:00 2,3 C 78 % 1016,5 hPa 0,0 l/m 0,0 km/h O-NO -1,1 C 2,3 C 0,0 km/h
29.11.2018 08:00 2,1 C 77 % 1015,8 hPa 0,0 l/m 0,0 km/h O-NO -1,5 C 2,1 C 0,0 km/h
29.11.2018 09:00 3,6 C 71 % 1016,1 hPa 0,0 l/m 0,0 km/h O-NO -1,2 C 3,6 C 0,0 km/h
29.11.2018 10:00 5,4 C 67 % 1016,4 hPa 0,0 l/m 0,0 km/h O-NO -0,2 C 5,4 C 0,0 km/h
29.11.2018 11:00 6,2 C 70 % 1016,0 hPa 0,0 l/m 0,0 km/h O-NO 1,1 C 6,2 C 0,0 km/h
29.11.2018 12:00 6,7 C 80 % 1015,2 hPa 0,0 l/m 0,0 km/h O-NO 3,5 C 6,7 C 0,0 km/h
29.11.2018 13:00 6,9 C 84 % 1014,3 hPa 0,0 l/m 0,0 km/h O-NO 4,4 C 6,9 C 0,0 km/h
29.11.2018 14:00 6,9 C 85 % 1013,1 hPa 0,0 l/m 0,0 km/h W-NW 4,6 C 6,9 C 0,0 km/h
29.11.2018 15:00 6,6 C 85 % 1013,6 hPa 0,0 l/m 0,0 km/h W-NW 4,3 C 6,6 C 0,0 km/h
29.11.2018 16:00 6,2 C 85 % 1013,4 hPa 0,0 l/m 0,0 km/h W-NW 3,9 C 6,2 C 0,0 km/h
29.11.2018 17:00 5,1 C 85 % 1013,1 hPa 0,0 l/m 0,0 km/h W-NW 2,8 C 5,1 C 0,0 km/h
29.11.2018 18:00 4,2 C 84 % 1013,6 hPa 0,0 l/m 0,0 km/h NW 1,7 C 4,2 C 0,0 km/h
29.11.2018 19:00 3,5 C 83 % 1013,4 hPa 0,0 l/m 0,0 km/h NW 0,9 C 3,5 C 0,0 km/h
29.11.2018 20:00 2,9 C 82 % 1013,2 hPa 0,0 l/m 0,0 km/h N 0,1 C 2,9 C 0,0 km/h
29.11.2018 21:00 2,3 C 81 % 1013,5 hPa 0,0 l/m 0,0 km/h N -0,6 C 2,3 C 0,0 km/h
29.11.2018 22:00 1,6 C 80 % 1013,5 hPa 0,0 l/m 0,0 km/h N -1,5 C 1,6 C 0,0 km/h
29.11.2018 23:00 1,4 C 80 % 1013,0 hPa 0,0 l/m 0,0 km/h N-NO -1,7 C 1,4 C 0,0 km/h
30.11.2018 00:00 1,1 C 79 % 1013,1 hPa 0,0 l/m 0,0 km/h N-NO -2,1 C 1,1 C 0,0 km/h
30.11.2018 01:00 2,3 C 75 % 1012,7 hPa 0,0 l/m 0,0 km/h O-SO -1,7 C 2,3 C 0,0 km/h
30.11.2018 02:00 3,1 C 79 % 1012,9 hPa 0,0 l/m 0,0 km/h O-NO -0,2 C 3,1 C 0,0 km/h
30.11.2018 03:00 2,4 C 82 % 1012,9 hPa 0,0 l/m 0,0 km/h O-SO -0,4 C 2,4 C 0,0 km/h
30.11.2018 04:00 3,1 C 82 % 1012,8 hPa 0,0 l/m 0,0 km/h NO 0,3 C 3,1 C 0,0 km/h
30.11.2018 05:00 3,6 C 83 % 1012,3 hPa 0,0 l/m 0,0 km/h N-NO 1,0 C 3,6 C 0,0 km/h
30.11.2018 06:00 4,6 C 85 % 1012,5 hPa 0,0 l/m 0,0 km/h S-SW 2,3 C 4,6 C 0,0 km/h
30.11.2018 07:00 6,5 C 85 % 1013,1 hPa 0,5 l/m 0,0 km/h SO 4,2 C 6,5 C 0,0 km/h
30.11.2018 08:00 7,2 C 85 % 1013,5 hPa 0,0 l/m 0,0 km/h NO 4,9 C 7,2 C 0,0 km/h
30.11.2018 09:00 6,3 C 84 % 1013,3 hPa 0,5 l/m 0,0 km/h NO 3,8 C 6,3 C 0,0 km/h
30.11.2018 10:00 6,9 C 80 % 1013,2 hPa 0,0 l/m 0,0 km/h NO 3,7 C 6,9 C 0,0 km/h
30.11.2018 11:00 7,2 C 78 % 1012,9 hPa 0,0 l/m 0,0 km/h S-SO 3,6 C 7,2 C 0,0 km/h
30.11.2018 12:00 7,8 C 77 % 1012,3 hPa 0,5 l/m 0,0 km/h SW 4,0 C 7,8 C 0,0 km/h
30.11.2018 13:00 8,1 C 77 % 1012,2 hPa 0,0 l/m 5,2 km/h SW 4,3 C 8,1 C 2,9 km/h
30.11.2018 14:00 7,9 C 80 % 1012,3 hPa 0,5 l/m 5,8 km/h S 4,7 C 7,9 C 3,2 km/h
30.11.2018 15:00 7,6 C 81 % 1012,6 hPa 1,0 l/m 0,0 km/h SO 4,6 C 7,6 C 0,0 km/h
30.11.2018 16:00 7,1 C 82 % 1013,1 hPa 0,5 l/m 0,0 km/h SO 4,2 C 7,1 C 0,0 km/h
30.11.2018 17:00 6,8 C 82 % 1013,2 hPa 0,0 l/m 0,0 km/h SO 3,9 C 6,8 C 0,0 km/h
30.11.2018 18:00 6,7 C 80 % 1013,4 hPa 0,5 l/m 0,0 km/h SO 3,5 C 6,7 C 0,0 km/h
30.11.2018 19:00 6,6 C 78 % 1013,9 hPa 0,0 l/m 0,0 km/h SO 3,0 C 6,6 C 0,0 km/h
30.11.2018 20:00 6,6 C 76 % 1013,8 hPa 0,0 l/m 0,0 km/h O 2,7 C 6,6 C 0,0 km/h
30.11.2018 21:00 6,9 C 75 % 1014,4 hPa 0,0 l/m 0,0 km/h O 2,8 C 6,9 C 0,0 km/h
30.11.2018 22:00 6,9 C 75 % 1014,5 hPa 0,0 l/m 0,0 km/h O 2,8 C 6,9 C 0,0 km/h
30.11.2018 23:00 7,0 C 74 % 1015,3 hPa 0,0 l/m 0,0 km/h O 2,7 C 7,0 C 0,0 km/h
01.12.2018 00:00 6,8 C 75 % 1015,3 hPa 0,0 l/m 0,0 km/h O 2,7 C 6,8 C 0,0 km/h
01.12.2018 01:00 6,2 C 75 % 1015,1 hPa 0,0 l/m 0,0 km/h O 2,1 C 6,2 C 0,0 km/h
01.12.2018 02:00 6,1 C 74 % 1015,5 hPa 0,0 l/m 0,0 km/h O 1,8 C 6,1 C 0,0 km/h
01.12.2018 03:00 5,6 C 73 % 1015,4 hPa 0,0 l/m 0,0 km/h O 1,2 C 5,6 C 0,0 km/h
01.12.2018 04:00 5,9 C 71 % 1015,3 hPa 0,0 l/m 0,0 km/h O 1,1 C 5,9 C 0,0 km/h
01.12.2018 05:00 5,9 C 70 % 1015,3 hPa 0,5 l/m 0,0 km/h O 0,9 C 5,9 C 0,0 km/h
01.12.2018 06:00 5,3 C 71 % 1015,5 hPa 0,0 l/m 0,0 km/h O 0,5 C 5,3 C 0,0 km/h
01.12.2018 07:00 5,0 C 70 % 1015,9 hPa 0,0 l/m 0,0 km/h O -0,0 C 5,0 C 0,0 km/h
01.12.2018 08:00 4,9 C 69 % 1016,1 hPa 0,0 l/m 0,0 km/h O -0,3 C 4,9 C 0,0 km/h
01.12.2018 09:00 6,6 C 64 % 1016,0 hPa 0,0 l/m 0,0 km/h O 0,3 C 6,6 C 0,0 km/h
01.12.2018 10:00 8,1 C 64 % 1015,7 hPa 0,0 l/m 0,0 km/h SW 1,7 C 8,1 C 0,0 km/h
01.12.2018 11:00 9,3 C 81 % 1015,9 hPa 0,0 l/m 13,0 km/h S-SW 6,2 C 5,2 C 7,2 km/h
01.12.2018 12:00 10,3 C 83 % 1015,3 hPa 0,0 l/m 22,7 km/h SW 7,5 C 2,9 C 12,6 km/h
01.12.2018 13:00 10,3 C 79 % 1015,1 hPa 0,0 l/m 22,7 km/h SW 6,8 C 2,9 C 12,6 km/h
01.12.2018 14:00 9,6 C 78 % 1014,6 hPa 0,0 l/m 20,7 km/h S 6,0 C 2,5 C 11,5 km/h
01.12.2018 15:00 9,0 C 79 % 1014,3 hPa 0,0 l/m 7,1 km/h SW 5,6 C 8,5 C 4,0 km/h
01.12.2018 16:00 8,1 C 81 % 1014,1 hPa 0,0 l/m 0,0 km/h S 5,0 C 8,1 C 0,0 km/h
01.12.2018 17:00 7,3 C 83 % 1014,0 hPa 0,0 l/m 0,0 km/h SO 4,6 C 7,3 C 0,0 km/h
01.12.2018 18:00 6,8 C 85 % 1013,2 hPa 0,0 l/m 0,0 km/h O-SO 4,5 C 6,8 C 0,0 km/h
01.12.2018 19:00 6,2 C 85 % 1012,8 hPa 0,0 l/m 0,0 km/h O-SO 3,9 C 6,2 C 0,0 km/h
01.12.2018 20:00 6,1 C 85 % 1012,0 hPa 0,0 l/m 0,0 km/h S 3,8 C 6,1 C 0,0 km/h
01.12.2018 21:00 7,3 C 85 % 1011,6 hPa 0,0 l/m 10,4 km/h O-SO 4,9 C 4,4 C 5,8 km/h
01.12.2018 22:00 8,8 C 74 % 1011,3 hPa 0,0 l/m 0,0 km/h O-NO 4,4 C 8,8 C 0,0 km/h
01.12.2018 23:00 8,4 C 74 % 1010,7 hPa 0,0 l/m 0,0 km/h SO 4,0 C 8,4 C 0,0 km/h
02.12.2018 00:00 8,4 C 74 % 1010,3 hPa 0,0 l/m 0,0 km/h SO 4,0 C 8,4 C 0,0 km/h
02.12.2018 01:00 8,6 C 75 % 1009,7 hPa 0,0 l/m 0,0 km/h S-SW 4,4 C 8,6 C 0,0 km/h
02.12.2018 02:00 8,5 C 74 % 1009,2 hPa 0,0 l/m 0,0 km/h O 4,1 C 8,5 C 0,0 km/h
02.12.2018 03:00 7,8 C 76 % 1008,5 hPa 0,0 l/m 0,0 km/h NO 3,8 C 7,8 C 0,0 km/h
02.12.2018 04:00 7,9 C 77 % 1007,2 hPa 0,0 l/m 0,0 km/h O-SO 4,1 C 7,9 C 0,0 km/h
02.12.2018 05:00 7,6 C 78 % 1007,5 hPa 0,5 l/m 0,0 km/h S-SW 4,0 C 7,6 C 0,0 km/h
02.12.2018 06:00 7,1 C 82 % 1006,9 hPa 2,1 l/m 0,0 km/h S-SW 4,2 C 7,1 C 0,0 km/h
02.12.2018 07:00 6,3 C 84 % 1006,1 hPa 1,6 l/m 0,0 km/h NO 3,8 C 6,3 C 0,0 km/h
02.12.2018 08:00 6,8 C 84 % 1006,1 hPa 0,0 l/m 0,0 km/h SW 4,3 C 6,8 C 0,0 km/h
02.12.2018 09:00 10,8 C 85 % 1006,5 hPa 0,5 l/m 24,0 km/h W 8,4 C 3,2 C 13,3 km/h
02.12.2018 10:00 10,4 C 84 % 1006,5 hPa 1,6 l/m 25,9 km/h S-SW 7,8 C 2,1 C 14,4 km/h
02.12.2018 11:00 11,3 C 85 % 1006,9 hPa 0,0 l/m 12,3 km/h W-SW 8,9 C 7,9 C 6,8 km/h
02.12.2018 12:00 11,6 C 84 % 1006,6 hPa 0,0 l/m 25,3 km/h S-SW 9,0 C 3,9 C 14,0 km/h
02.12.2018 13:00 11,9 C 83 % 1006,2 hPa 0,0 l/m 53,1 km/h W-SW 9,1 C 0,3 C 29,5 km/h
02.12.2018 14:00 12,2 C 83 % 1006,3 hPa 0,0 l/m 23,3 km/h SW 9,4 C 5,2 C 13,0 km/h
02.12.2018 15:00 12,3 C 83 % 1006,5 hPa 0,0 l/m 35,0 km/h S-SW 9,5 C 3,0 C 19,4 km/h
02.12.2018 16:00 12,3 C 83 % 1006,6 hPa 0,0 l/m 40,2 km/h S-SW 9,5 C 2,3 C 22,3 km/h
02.12.2018 17:00 12,4 C 83 % 1007,0 hPa 0,0 l/m 22,0 km/h S-SW 9,6 C 5,8 C 12,2 km/h
02.12.2018 18:00 11,8 C 84 % 1007,3 hPa 0,5 l/m 26,6 km/h W 9,2 C 3,9 C 14,8 km/h
02.12.2018 19:00 12,4 C 84 % 1006,8 hPa 0,0 l/m 21,4 km/h SW 9,8 C 6,0 C 11,9 km/h
02.12.2018 20:00 12,4 C 84 % 1006,9 hPa 0,0 l/m 32,4 km/h SW 9,8 C 3,6 C 18,0 km/h
02.12.2018 21:00 12,1 C 84 % 1007,0 hPa 0,5 l/m 22,7 km/h S 9,5 C 5,2 C 12,6 km/h
02.12.2018 22:00 11,9 C 84 % 1006,9 hPa 0,5 l/m 33,7 km/h W-SW 9,3 C 2,7 C 18,7 km/h
02.12.2018 23:00 12,1 C 84 % 1006,8 hPa 0,5 l/m 14,9 km/h S 9,5 C 7,7 C 8,3 km/h
Min-Datum _ 28.11.18 01.12.18 26.11.18 - 26.11.18 - 28.11.18 02.12.18 26.11.18
_ Min-Zeit 06:31 09:31 06:31 - 00:31 - 07:31 13:31 00:31
Minimum _ 0,6 C 64 % 1002,1 hPa - 0,0 km/h - -2,8 C 0,3 C 0,0 km/h
Max-Datum _ 02.12.18 26.11.18 28.11.18 02.12.18 02.12.18 - 02.12.18 01.12.18 02.12.18
_ Max-Zeit 17:31 01:31 10:31 06:31 13:31 - 19:31 22:31 13:31
Maximum _ 12,4 C 85 % 1020,6 hPa 2,1 l/m 53,1 km/h
W-SW
- 9,8 C 8,8 C 29,5 km/h
W-SW
Durchschnitt _ 5,5 C 80 % 1012,9 hPa #17,6 l/m 3,1 km/h S-SW 2,3 C 4,7 C 1,7 km/h
www.sexauwetter.de